createdAt,value
2023-01-26T02:50:37.661Z,100.00
2023-01-26T02:53:06.912Z,100.00
2023-01-26T02:55:35.818Z,100.00
2023-01-26T02:58:05.595Z,100.00
2023-01-26T03:00:58.060Z,100.00
2023-01-26T03:03:42.281Z,100.00
2023-01-26T03:06:11.771Z,100.00
2023-01-26T03:08:48.649Z,100.00
2023-01-26T03:11:17.450Z,100.00
2023-01-26T03:13:46.870Z,100.00
2023-01-26T03:16:19.226Z,100.00
2023-01-26T03:19:07.927Z,100.00
2023-01-26T03:21:55.994Z,100.00
2023-01-26T03:24:44.401Z,100.00
2023-01-26T03:27:33.997Z,100.00
2023-01-26T03:30:02.830Z,100.00
2023-01-26T03:32:31.470Z,100.00
2023-01-26T03:35:00.413Z,100.00
2023-01-26T03:37:31.470Z,100.00
2023-01-26T03:40:19.925Z,100.00
2023-01-26T03:43:07.484Z,100.00
2023-01-26T03:45:56.122Z,100.00
2023-01-26T03:48:44.005Z,100.00
2023-01-26T03:51:32.172Z,100.00
2023-01-26T03:54:19.901Z,100.00
2023-01-26T03:56:48.803Z,100.00
2023-01-26T03:59:17.573Z,100.00
2023-01-26T04:02:07.000Z,100.00
2023-01-26T04:04:56.617Z,100.00
2023-01-26T04:07:44.026Z,100.00
2023-01-26T04:10:13.829Z,100.00
2023-01-26T04:12:42.542Z,100.00
2023-01-26T04:15:30.977Z,100.00
2023-01-26T04:18:25.774Z,100.00
2023-01-26T04:21:13.776Z,100.00
2023-01-26T04:23:41.611Z,100.00
2023-01-26T04:26:11.481Z,100.00
2023-01-26T04:28:41.288Z,100.00
2023-01-26T04:31:10.539Z,100.00
2023-01-26T04:33:38.369Z,100.00
2023-01-26T04:36:09.404Z,100.00
2023-01-26T04:38:38.920Z,100.00
2023-01-26T04:41:07.594Z,100.00
2023-01-26T04:43:37.051Z,100.00
2023-01-26T04:46:08.080Z,100.00
2023-01-26T04:48:38.208Z,100.00
2023-01-26T04:51:12.356Z,100.00
2023-01-26T04:53:40.561Z,100.00
2023-01-26T04:56:39.089Z,100.00
2023-01-26T04:59:08.853Z,100.00
2023-01-26T05:01:37.486Z,100.00
2023-01-26T05:04:08.723Z,100.00
2023-01-26T05:06:41.484Z,100.00
2023-01-26T05:09:11.776Z,100.00
2023-01-26T05:11:42.230Z,100.00
2023-01-26T05:14:10.408Z,100.00
2023-01-26T05:16:40.262Z,100.00
2023-01-26T05:19:09.496Z,100.00
2023-01-26T05:21:38.488Z,100.00
2023-01-26T05:24:09.565Z,100.00
2023-01-26T05:26:38.871Z,100.00
2023-01-26T05:29:09.300Z,100.00
2023-01-26T05:31:47.905Z,100.00
2023-01-26T05:34:17.289Z,100.00
2023-01-26T05:36:45.895Z,100.00
2023-01-26T05:39:15.172Z,100.00
2023-01-26T05:41:45.584Z,100.00
2023-01-26T05:44:14.910Z,100.00
2023-01-26T05:46:44.518Z,100.00
2023-01-26T05:49:16.306Z,100.00
2023-01-26T05:51:44.359Z,100.00
2023-01-26T05:54:24.899Z,100.00
2023-01-26T05:56:57.793Z,100.00
2023-01-26T05:59:29.298Z,100.00
2023-01-26T06:01:58.344Z,100.00
2023-01-26T06:04:29.578Z,100.00
2023-01-26T06:07:01.081Z,100.00
2023-01-26T06:09:31.042Z,100.00
2023-01-26T06:11:59.397Z,100.00
2023-01-26T06:14:31.962Z,100.00
2023-01-26T06:17:00.533Z,100.00
2023-01-26T06:19:34.130Z,100.00
2023-01-26T06:22:03.142Z,100.00
2023-01-26T06:24:37.775Z,100.00
2023-01-26T06:27:18.963Z,100.00
2023-01-26T06:29:48.377Z,100.00
2023-01-26T06:32:16.956Z,100.00
2023-01-26T06:34:46.107Z,100.00
2023-01-26T06:37:15.213Z,99.35
2023-01-26T06:39:43.543Z,99.50
2023-01-26T06:42:13.680Z,97.50
2023-01-26T06:44:42.302Z,96.62
2023-01-26T06:47:12.568Z,94.21
2023-01-26T06:49:43.395Z,94.29
2023-01-26T06:52:33.180Z,95.09
2023-01-26T06:55:03.768Z,97.46
2023-01-26T06:57:32.394Z,96.79
2023-01-26T07:00:04.139Z,98.68
2023-01-26T07:02:32.432Z,96.76
2023-01-26T07:05:01.813Z,97.18
2023-01-26T07:07:31.917Z,94.81
2023-01-26T07:10:20.880Z,94.13
2023-01-26T07:12:49.850Z,94.57
2023-01-26T07:15:18.934Z,95.36
2023-01-26T07:17:48.010Z,95.74
2023-01-26T07:20:17.457Z,94.55
2023-01-26T07:22:48.408Z,93.12
2023-01-26T07:25:18.745Z,92.97
2023-01-26T07:27:56.401Z,93.28
2023-01-26T07:30:25.915Z,94.32
2023-01-26T07:32:56.372Z,91.89
2023-01-26T07:35:25.411Z,91.71
2023-01-26T07:38:00.710Z,93.05
2023-01-26T07:40:34.504Z,92.17
2023-01-26T07:43:04.099Z,92.26
2023-01-26T07:45:32.462Z,91.71
2023-01-26T07:48:03.565Z,90.53
2023-01-26T07:50:32.914Z,91.09
2023-01-26T07:53:01.736Z,89.91
2023-01-26T07:55:34.560Z,91.21
2023-01-26T07:58:02.990Z,91.75
2023-01-26T08:00:31.385Z,90.02
2023-01-26T08:03:04.700Z,87.10
2023-01-26T08:05:37.825Z,90.54
2023-01-26T08:08:07.446Z,88.65
2023-01-26T08:10:37.202Z,87.44
2023-01-26T08:13:05.500Z,86.05
2023-01-26T08:15:38.767Z,87.83
2023-01-26T08:18:07.399Z,86.35
2023-01-26T08:20:38.177Z,86.85
2023-01-26T08:23:06.528Z,87.85
2023-01-26T08:25:36.034Z,86.60
2023-01-26T08:28:04.398Z,84.32
2023-01-26T08:30:33.913Z,84.62
2023-01-26T08:33:03.348Z,83.45
2023-01-26T08:35:36.858Z,84.59
2023-01-26T08:38:15.049Z,83.54
2023-01-26T08:41:02.883Z,81.70
2023-01-26T09:04:41.154Z,76.62
2023-01-26T09:07:20.411Z,77.23
2023-01-26T09:09:55.425Z,75.92
2023-01-26T09:12:25.675Z,75.13
2023-01-26T09:14:54.838Z,73.94
2023-01-26T09:17:37.541Z,73.48
2023-01-26T09:20:07.915Z,71.71
2023-01-26T09:22:36.518Z,72.22
2023-01-26T09:25:05.871Z,72.53
2023-01-26T09:27:37.160Z,72.46
2023-01-26T09:30:13.572Z,72.05
2023-01-26T09:32:47.157Z,72.63
2023-01-26T09:35:18.479Z,72.28
2023-01-26T09:37:47.413Z,71.86
2023-01-26T09:40:34.883Z,71.25
2023-01-26T09:43:44.875Z,71.01
2023-01-26T09:46:32.927Z,71.30
2023-01-26T09:49:15.062Z,70.77
2023-01-26T09:52:18.460Z,69.08
2023-01-26T09:54:54.011Z,70.49
2023-01-26T09:57:28.459Z,69.34
2023-01-26T10:00:06.391Z,68.74
2023-01-26T10:03:13.084Z,69.78
2023-01-26T10:06:19.181Z,67.30
2023-01-26T10:08:50.387Z,66.91
2023-01-26T10:11:37.004Z,68.43
2023-01-26T10:14:32.918Z,68.44
2023-01-26T10:17:06.808Z,68.06
2023-01-26T10:19:49.612Z,68.44
2023-01-26T10:22:41.467Z,67.11
2023-01-26T10:25:27.140Z,69.14
2023-01-26T10:27:56.392Z,67.95
2023-01-26T10:30:24.198Z,68.18
2023-01-26T10:32:53.427Z,67.00
2023-01-26T10:35:25.484Z,67.58
2023-01-26T10:37:54.739Z,67.79
2023-01-26T10:43:07.786Z,66.98
2023-01-26T11:19:22.428Z,65.44
2023-01-26T11:22:09.241Z,65.95
2023-01-26T11:25:05.251Z,66.30
2023-01-26T11:28:09.240Z,65.16
2023-01-26T11:31:21.259Z,66.23
2023-01-26T11:34:31.404Z,65.83
2023-01-26T11:37:37.460Z,64.28
2023-01-26T11:40:31.997Z,64.78
2023-01-26T11:43:44.255Z,64.34
2023-01-26T11:46:50.216Z,63.82
2023-01-26T11:49:31.071Z,64.21
2023-01-26T11:52:10.951Z,64.22
2023-01-26T12:13:17.976Z,64.82
2023-01-26T23:00:37.300Z,100.00
2023-01-26T23:25:18.793Z,100.00
2023-01-26T23:28:06.320Z,100.00
2023-01-26T23:30:37.974Z,100.00
2023-01-26T23:33:08.533Z,100.00
2023-01-26T23:35:57.546Z,100.00
2023-01-26T23:38:36.889Z,100.00
2023-01-26T23:44:30.157Z,100.00
